Time;durP1;ratioP1;P1;durP2;ratioP2;P2;SDS_P1;SDS_P2;PMS_P1;PMS_P2;Temp;Humidity;BMP_temperature;BMP_pressure;BME280_temperature;BME280_humidity;BME280_pressure;Samples;Min_cycle;Max_cycle;Signal;HPM_P1;HPM_P2
2021/10/29 00:00:03;;;;;;;;;;;;;;;;;;347157;28;906;-84
2021/10/29 00:00:13;;;;;;;;;;;;;;;;;;348023;28;822;-84
2021/10/29 00:00:24;;;;;;;;;;;;;;;;;;348080;28;1483;-81
2021/10/29 00:00:35;;;;;;;;;;;;;;;;;;348665;28;868;-83
2021/10/29 00:00:45;;;;;;;;;;;;;;;;;;347095;28;1287;-78
2021/10/29 00:00:55;;;;;;;;;;;;;;;;;;345871;28;923;-81
2021/10/29 00:01:06;;;;;;;;;;;;;;;;;;345853;28;1044;-82
2021/10/29 00:01:17;;;;;;;;;;;;;;;;;;347171;28;845;-85
2021/10/29 00:01:30;;;;;;;;;;;;;;;;;;346932;28;1285;-80
2021/10/29 00:01:40;;;;;;;;;;;;;;;;;;348489;28;1314;-81
2021/10/29 00:01:51;;;;;;;;;;;;;;;;;;348529;28;1201;-82
2021/10/29 00:02:01;;;;;;;;;;;;;;;;;;350000;28;797;-79
2021/10/29 00:02:12;;;;;;;;;;;;;;;;;;349801;28;1432;-86
2021/10/29 00:02:23;;;;;;;;;;;;;;;;;;349999;28;897;-81
2021/10/29 00:02:34;;;;;;;;;;;;;;;;;;349848;28;1669;-87
2021/10/29 00:02:44;;;;;;;;;;;;;;;;;;349986;28;830;-87
2021/10/29 00:02:54;;;;;;;;;;;;;;;;;;350085;28;902;-85
2021/10/29 00:03:05;;;;;;;;;;;;;;;;;;349939;28;846;-87
2021/10/29 00:03:16;;;;;;;;;;;;;;;;;;348560;28;929;-88
2021/10/29 00:03:32;;;;;;;;;;;;;;;;;;347114;28;1083;-85
2021/10/29 00:03:51;;;;;;;;;;;;;;;;;;347343;28;870;-85
2021/10/29 00:04:01;;;;;;;;;;;;;;;;;;349935;28;897;-82
2021/10/29 00:04:12;;;;;;;;;;;;;;;;;;350039;28;791;-82
2021/10/29 00:04:22;;;;;;;;;;;;;;;;;;349911;28;916;-82
2021/10/29 00:04:32;;;;;;;;;;;;;;;;;;349812;28;1419;-83
2021/10/29 00:04:43;;;;;;;;;;;;;;;;;;348419;28;1403;-80
2021/10/29 00:04:55;;;;;;;;;;;;;;;;;;348531;28;940;-82
2021/10/29 00:05:06;;;;;;;;;;;;;;;;;;348477;28;1090;-82
2021/10/29 00:05:16;;;;;;;;;;;;;;;;;;348596;28;830;-86
2021/10/29 00:05:27;;;;;;;;;;;;;;;;;;348527;28;1310;-86
2021/10/29 00:05:37;;;;;;;;;;;;;;;;;;348441;28;813;-84
2021/10/29 00:06:14;;;;;;;;;;;;;;;;;;345985;28;1008;-85
2021/10/29 00:06:25;;;;;;;;;;;;;;;;;;345567;28;1425;-85
2021/10/29 00:06:35;;;;;;;;;;;;;;;;;;345993;28;930;-83
2021/10/29 00:06:46;;;;;;;;;;;;;;;;;;345693;28;1287;-79
2021/10/29 00:06:56;;;;;;;;;;;;;;;;;;345816;28;810;-86
2021/10/29 00:07:08;;;;;;;;;;;;;;;;;;345830;28;1029;-82
2021/10/29 00:07:19;;;;;;;;;;;;;;;;;;345811;28;985;-89
2021/10/29 00:07:29;;;;;;;;;;;;;;;;;;347249;28;961;-85
2021/10/29 00:07:39;;;;;;;;;;;;;;;;;;344433;28;1648;-88
2021/10/29 00:07:50;;;;;;;;;;;;;;;;;;347184;28;798;-88
2021/10/29 00:08:01;;;;;;;;;;;;;;;;;;348727;28;857;-86
2021/10/29 00:08:11;;;;;;;;;;;;;;;;;;348617;28;810;-87
2021/10/29 00:08:22;;;;;;;;;;;;;;;;;;348493;28;787;-82
2021/10/29 00:08:32;;;;;;;;;;;;;;;;;;348556;28;976;-84
2021/10/29 00:08:42;;;;;;;;;;;;;;;;;;349385;28;873;-87
2021/10/29 00:08:58;;;;;;;;;;;;;;;;;;349991;28;842;-80
2021/10/29 00:09:09;;;;;;;;;;;;;;;;;;349963;28;1007;-83
2021/10/29 00:09:19;;;;;;;;;;;;;;;;;;348423;28;1731;-85
2021/10/29 00:09:32;;;;;;;;;;;;;;;;;;348689;28;1292;-77
2021/10/29 00:09:58;;;;;;;;;;;;;;;;;;348384;28;544;-88
2021/10/29 00:10:14;;;;;;;;;;;;;;;;;;348591;28;985;-88
2021/10/29 00:10:24;;;;;;;;;;;;;;;;;;348540;28;917;-89
2021/10/29 00:10:35;;;;;;;;;;;;;;;;;;348583;28;1023;-88
2021/10/29 00:10:46;;;;;;;;;;;;;;;;;;348644;28;837;-86
2021/10/29 00:10:56;;;;;;;;;;;;;;;;;;347179;28;886;-87
2021/10/29 00:11:32;;;;;;;;;;;;;;;;;;351279;28;961;-83
2021/10/29 00:11:43;;;;;;;;;;;;;;;;;;351285;28;995;-86
2021/10/29 00:11:53;;;;;;;;;;;;;;;;;;349941;28;1560;-86
2021/10/29 00:12:04;;;;;;;;;;;;;;;;;;351357;28;845;-85
2021/10/29 00:12:15;;;;;;;;;;;;;;;;;;351272;28;825;-83
2021/10/29 00:12:26;;;;;;;;;;;;;;;;;;351381;28;972;-83
2021/10/29 00:12:36;;;;;;;;;;;;;;;;;;351336;28;794;-80
2021/10/29 00:12:47;;;;;;;;;;;;;;;;;;351333;28;981;-82
2021/10/29 00:13:03;;;;;;;;;;;;;;;;;;352662;28;917;-82
2021/10/29 00:13:25;;;;;;;;;;;;;;;;;;352750;28;860;-83
2021/10/29 00:13:36;;;;;;;;;;;;;;;;;;352776;28;983;-83
2021/10/29 00:13:52;;;;;;;;;;;;;;;;;;352784;28;979;-89
2021/10/29 00:14:03;;;;;;;;;;;;;;;;;;350247;28;1019;-81
2021/10/29 00:14:15;;;;;;;;;;;;;;;;;;350074;28;909;-82
2021/10/29 00:14:25;;;;;;;;;;;;;;;;;;351460;28;833;-83
2021/10/29 00:14:42;;;;;;;;;;;;;;;;;;351346;28;964;-81
2021/10/29 00:14:52;;;;;;;;;;;;;;;;;;351791;28;988;-78
2021/10/29 00:15:03;;;;;;;;;;;;;;;;;;351259;28;1191;-85
2021/10/29 00:15:26;;;;;;;;;;;;;;;;;;349938;28;983;-81
2021/10/29 00:15:43;;;;;;;;;;;;;;;;;;350048;28;861;-89
2021/10/29 00:15:53;;;;;;;;;;;;;;;;;;349930;28;892;-86
2021/10/29 00:16:04;;;;;;;;;;;;;;;;;;349958;28;857;-85
2021/10/29 00:16:30;;;;;;;;;;;;;;;;;;348567;28;802;-86
2021/10/29 00:16:40;;;;;;;;;;;;;;;;;;345690;28;965;-80
2021/10/29 00:16:51;;;;;;;;;;;;;;;;;;345786;28;918;-86
2021/10/29 00:17:02;;;;;;;;;;;;;;;;;;346859;28;1354;-82
2021/10/29 00:17:12;;;;;;;;;;;;;;;;;;348238;28;917;-86
2021/10/29 00:17:22;;;;;;;;;;;;;;;;;;348592;28;980;-82
2021/10/29 00:17:33;;;;;;;;;;;;;;;;;;349915;28;1336;-80
2021/10/29 00:17:43;;;;;;;;;;;;;;;;;;349914;28;1412;-84
2021/10/29 00:17:54;;;;;;;;;;;;;;;;;;348458;28;1444;-86
2021/10/29 00:18:05;;;;;;;;;;;;;;;;;;348326;28;1032;-81
2021/10/29 00:18:15;;;;;;;;;;;;;;;;;;348662;28;833;-82
2021/10/29 00:18:27;;;;;;;;;;;;;;;;;;348474;28;1277;-80
2021/10/29 00:18:37;;;;;;;;;;;;;;;;;;348537;28;782;-87
2021/10/29 00:18:48;;;;;;;;;;;;;;;;;;348636;28;1516;-88
2021/10/29 00:18:58;;;;;;;;;;;;;;;;;;348458;28;898;-89
2021/10/29 00:19:08;;;;;;;;;;;;;;;;;;344289;28;1300;-88
2021/10/29 00:19:19;;;;;;;;;;;;;;;;;;344400;28;1972;-85
2021/10/29 00:19:32;;;;;;;;;;;;;;;;;;344514;28;874;-86
2021/10/29 00:19:42;;;;;;;;;;;;;;;;;;344491;28;799;-83
2021/10/29 00:20:22;;;;;;;;;;;;;;;;;;345669;28;1672;-85
2021/10/29 00:20:33;;;;;;;;;;;;;;;;;;345735;28;1305;-85
2021/10/29 00:20:43;;;;;;;;;;;;;;;;;;345874;28;993;-84
2021/10/29 00:20:54;;;;;;;;;;;;;;;;;;345880;28;933;-82
2021/10/29 00:21:04;;;;;;;;;;;;;;;;;;346466;28;905;-84
2021/10/29 00:21:15;;;;;;;;;;;;;;;;;;345709;28;1008;-86
2021/10/29 00:21:25;;;;;;;;;;;;;;;;;;345780;28;878;-84
2021/10/29 00:21:35;;;;;;;;;;;;;;;;;;345909;28;798;-86
2021/10/29 00:21:46;;;;;;;;;;;;;;;;;;349819;28;1347;-83
2021/10/29 00:21:56;;;;;;;;;;;;;;;;;;348424;28;1310;-86
2021/10/29 00:22:07;;;;;;;;;;;;;;;;;;348617;28;940;-82
2021/10/29 00:22:43;;;;;;;;;;;;;;;;;;348477;28;1327;-83
2021/10/29 00:22:54;;;;;;;;;;;;;;;;;;344459;28;1315;-87
2021/10/29 00:23:04;;;;;;;;;;;;;;;;;;347135;28;1465;-85
2021/10/29 00:23:14;;;;;;;;;;;;;;;;;;348212;28;976;-86
2021/10/29 00:23:27;;;;;;;;;;;;;;;;;;348513;28;857;-84
2021/10/29 00:23:37;;;;;;;;;;;;;;;;;;349805;28;1211;-85
2021/10/29 00:23:48;;;;;;;;;;;;;;;;;;348382;28;1321;-87
2021/10/29 00:23:58;;;;;;;;;;;;;;;;;;348575;28;920;-84
2021/10/29 00:24:09;;;;;;;;;;;;;;;;;;348531;28;870;-86
2021/10/29 00:24:20;;;;;;;;;;;;;;;;;;349744;28;1550;-83
2021/10/29 00:24:36;;;;;;;;;;;;;;;;;;349889;28;856;-84
2021/10/29 00:24:46;;;;;;;;;;;;;;;;;;350037;28;817;-86
2021/10/29 00:24:57;;;;;;;;;;;;;;;;;;349668;28;904;-86
2021/10/29 00:25:07;;;;;;;;;;;;;;;;;;347110;28;814;-86
2021/10/29 00:25:18;;;;;;;;;;;;;;;;;;346923;28;1039;-86
2021/10/29 00:25:30;;;;;;;;;;;;;;;;;;347227;28;832;-85
2021/10/29 00:25:40;;;;;;;;;;;;;;;;;;348389;28;875;-86
2021/10/29 00:25:50;;;;;;;;;;;;;;;;;;348572;28;999;-87
2021/10/29 00:26:01;;;;;;;;;;;;;;;;;;349011;28;1011;-86
2021/10/29 00:26:12;;;;;;;;;;;;;;;;;;350361;28;1005;-84
2021/10/29 00:26:23;;;;;;;;;;;;;;;;;;351462;28;899;-84
2021/10/29 00:26:33;;;;;;;;;;;;;;;;;;351176;28;1271;-84
2021/10/29 00:26:44;;;;;;;;;;;;;;;;;;351329;28;1177;-87
2021/10/29 00:26:55;;;;;;;;;;;;;;;;;;351312;28;936;-90
2021/10/29 00:27:05;;;;;;;;;;;;;;;;;;352689;28;959;-83
2021/10/29 00:27:16;;;;;;;;;;;;;;;;;;352744;28;920;-85
2021/10/29 00:27:26;;;;;;;;;;;;;;;;;;352724;28;1006;-79
2021/10/29 00:27:37;;;;;;;;;;;;;;;;;;352764;28;916;-83
2021/10/29 00:27:47;;;;;;;;;;;;;;;;;;352526;28;1359;-86
2021/10/29 00:27:58;;;;;;;;;;;;;;;;;;352732;28;900;-86
2021/10/29 00:28:08;;;;;;;;;;;;;;;;;;352732;28;927;-79
2021/10/29 00:28:18;;;;;;;;;;;;;;;;;;352710;28;852;-85
2021/10/29 00:28:29;;;;;;;;;;;;;;;;;;352309;28;1050;-86
2021/10/29 00:28:39;;;;;;;;;;;;;;;;;;352795;28;832;-82
2021/10/29 00:28:50;;;;;;;;;;;;;;;;;;352778;28;915;-85
2021/10/29 00:29:00;;;;;;;;;;;;;;;;;;352121;28;998;-83
2021/10/29 00:29:11;;;;;;;;;;;;;;;;;;351302;28;1033;-76
2021/10/29 00:29:21;;;;;;;;;;;;;;;;;;349943;28;992;-83
2021/10/29 00:29:32;;;;;;;;;;;;;;;;;;351357;28;928;-82
2021/10/29 00:29:43;;;;;;;;;;;;;;;;;;348504;28;1214;-81
2021/10/29 00:29:54;;;;;;;;;;;;;;;;;;348578;28;751;-79
2021/10/29 00:30:05;;;;;;;;;;;;;;;;;;348362;28;952;-84
2021/10/29 00:30:16;;;;;;;;;;;;;;;;;;348569;28;888;-86
2021/10/29 00:30:26;;;;;;;;;;;;;;;;;;347115;28;1152;-86
2021/10/29 00:30:37;;;;;;;;;;;;;;;;;;347229;28;872;-85
2021/10/29 00:30:47;;;;;;;;;;;;;;;;;;348575;28;794;-84
2021/10/29 00:30:58;;;;;;;;;;;;;;;;;;347067;28;1655;-82
2021/10/29 00:31:08;;;;;;;;;;;;;;;;;;347021;28;1000;-82
2021/10/29 00:31:19;;;;;;;;;;;;;;;;;;347237;28;845;-83
2021/10/29 00:31:29;;;;;;;;;;;;;;;;;;347151;28;996;-86
2021/10/29 00:32:06;;;;;;;;;;;;;;;;;;347035;28;996;-80
2021/10/29 00:32:16;;;;;;;;;;;;;;;;;;345713;28;1401;-83
2021/10/29 00:32:29;;;;;;;;;;;;;;;;;;345321;28;1545;-82
2021/10/29 00:32:39;;;;;;;;;;;;;;;;;;345769;28;977;-81
2021/10/29 00:32:50;;;;;;;;;;;;;;;;;;348586;28;1332;-86
2021/10/29 00:33:00;;;;;;;;;;;;;;;;;;349935;28;1359;-81
2021/10/29 00:33:11;;;;;;;;;;;;;;;;;;349841;28;1469;-83
2021/10/29 00:33:21;;;;;;;;;;;;;;;;;;349873;28;865;-81
2021/10/29 00:33:32;;;;;;;;;;;;;;;;;;349931;28;984;-81
2021/10/29 00:33:49;;;;;;;;;;;;;;;;;;349933;28;956;-83
2021/10/29 00:33:59;;;;;;;;;;;;;;;;;;349596;28;1018;-83
2021/10/29 00:34:35;;;;;;;;;;;;;;;;;;351360;28;838;-78
2021/10/29 00:34:46;;;;;;;;;;;;;;;;;;351322;28;833;-80
2021/10/29 00:34:56;;;;;;;;;;;;;;;;;;351260;28;841;-81
2021/10/29 00:35:07;;;;;;;;;;;;;;;;;;351319;28;887;-81
2021/10/29 00:35:18;;;;;;;;;;;;;;;;;;354035;27;1306;-85
2021/10/29 00:35:28;;;;;;;;;;;;;;;;;;352344;28;942;-82
2021/10/29 00:35:44;;;;;;;;;;;;;;;;;;352697;28;818;-82
2021/10/29 00:35:54;;;;;;;;;;;;;;;;;;352690;28;801;-86
2021/10/29 00:36:05;;;;;;;;;;;;;;;;;;352766;28;828;-88
2021/10/29 00:36:15;;;;;;;;;;;;;;;;;;352618;28;1431;-86
2021/10/29 00:36:26;;;;;;;;;;;;;;;;;;351147;28;1472;-84
2021/10/29 00:37:02;;;;;;;;;;;;;;;;;;351280;28;917;-85
2021/10/29 00:37:13;;;;;;;;;;;;;;;;;;349310;28;1206;-85
2021/10/29 00:37:24;;;;;;;;;;;;;;;;;;349786;28;1299;-83
2021/10/29 00:37:38;;;;;;;;;;;;;;;;;;349938;28;1003;-85
2021/10/29 00:38:15;;;;;;;;;;;;;;;;;;354001;27;1289;-82
2021/10/29 00:38:26;;;;;;;;;;;;;;;;;;352581;28;1063;-83
2021/10/29 00:38:36;;;;;;;;;;;;;;;;;;352956;28;805;-80
2021/10/29 00:38:47;;;;;;;;;;;;;;;;;;351125;28;1048;-89
2021/10/29 00:38:57;;;;;;;;;;;;;;;;;;351267;28;984;-83
2021/10/29 00:39:08;;;;;;;;;;;;;;;;;;351329;28;976;-82
2021/10/29 00:39:19;;;;;;;;;;;;;;;;;;350817;28;1960;-86
2021/10/29 00:39:34;;;;;;;;;;;;;;;;;;351211;28;992;-84
2021/10/29 00:39:45;;;;;;;;;;;;;;;;;;349244;28;980;-88
2021/10/29 00:40:21;;;;;;;;;;;;;;;;;;351289;28;818;-84
2021/10/29 00:40:32;;;;;;;;;;;;;;;;;;351398;28;829;-84
2021/10/29 00:40:42;;;;;;;;;;;;;;;;;;351313;28;1076;-85
2021/10/29 00:40:53;;;;;;;;;;;;;;;;;;349918;28;983;-86
2021/10/29 00:41:03;;;;;;;;;;;;;;;;;;349729;28;1004;-80
2021/10/29 00:41:13;;;;;;;;;;;;;;;;;;348568;28;933;-87
2021/10/29 00:41:49;;;;;;;;;;;;;;;;;;349555;28;924;-88
2021/10/29 00:42:01;;;;;;;;;;;;;;;;;;348515;28;976;-87
2021/10/29 00:42:11;;;;;;;;;;;;;;;;;;347171;28;1079;-86
2021/10/29 00:42:22;;;;;;;;;;;;;;;;;;347149;28;1027;-81
2021/10/29 00:42:32;;;;;;;;;;;;;;;;;;347175;28;1000;-79
2021/10/29 00:42:43;;;;;;;;;;;;;;;;;;345853;28;936;-81
2021/10/29 00:43:20;;;;;;;;;;;;;;;;;;349891;28;1007;-82
2021/10/29 00:43:30;;;;;;;;;;;;;;;;;;349930;28;809;-85
2021/10/29 00:43:40;;;;;;;;;;;;;;;;;;349877;28;837;-78
2021/10/29 00:43:51;;;;;;;;;;;;;;;;;;349949;28;908;-79
2021/10/29 00:44:04;;;;;;;;;;;;;;;;;;349912;28;1202;-80
2021/10/29 00:44:20;;;;;;;;;;;;;;;;;;348360;28;1312;-80
2021/10/29 00:44:31;;;;;;;;;;;;;;;;;;348374;28;1255;-83
2021/10/29 00:44:41;;;;;;;;;;;;;;;;;;349507;28;1279;-88
2021/10/29 00:45:07;;;;;;;;;;;;;;;;;;348672;28;957;-83
2021/10/29 00:45:17;;;;;;;;;;;;;;;;;;348440;28;980;-87
2021/10/29 00:45:28;;;;;;;;;;;;;;;;;;348551;28;873;-85
2021/10/29 00:45:38;;;;;;;;;;;;;;;;;;349881;28;814;-85
2021/10/29 00:45:49;;;;;;;;;;;;;;;;;;348491;28;1659;-83
2021/10/29 00:45:59;;;;;;;;;;;;;;;;;;349891;28;932;-83
2021/10/29 00:46:10;;;;;;;;;;;;;;;;;;348535;28;1028;-81
2021/10/29 00:46:21;;;;;;;;;;;;;;;;;;348506;28;916;-82
2021/10/29 00:46:32;;;;;;;;;;;;;;;;;;349903;28;786;-84
2021/10/29 00:46:42;;;;;;;;;;;;;;;;;;351283;28;948;-88
2021/10/29 00:46:53;;;;;;;;;;;;;;;;;;351385;28;501;-86
2021/10/29 00:47:03;;;;;;;;;;;;;;;;;;351259;28;873;-87
2021/10/29 00:47:14;;;;;;;;;;;;;;;;;;351280;28;975;-87
2021/10/29 00:47:24;;;;;;;;;;;;;;;;;;348359;28;1170;-86
2021/10/29 00:47:40;;;;;;;;;;;;;;;;;;351214;28;1170;-87
2021/10/29 00:47:57;;;;;;;;;;;;;;;;;;351258;28;880;-82
2021/10/29 00:48:08;;;;;;;;;;;;;;;;;;351277;28;916;-82
2021/10/29 00:48:18;;;;;;;;;;;;;;;;;;351282;28;983;-84
2021/10/29 00:48:28;;;;;;;;;;;;;;;;;;349729;28;1419;-84
2021/10/29 00:48:39;;;;;;;;;;;;;;;;;;348459;28;1333;-84
2021/10/29 00:48:49;;;;;;;;;;;;;;;;;;348527;28;990;-89
2021/10/29 00:49:00;;;;;;;;;;;;;;;;;;347138;28;1601;-85
2021/10/29 00:49:10;;;;;;;;;;;;;;;;;;348418;28;1459;-87
2021/10/29 00:49:33;;;;;;;;;;;;;;;;;;348454;28;1169;-83
2021/10/29 00:49:50;;;;;;;;;;;;;;;;;;347118;28;1031;-85
2021/10/29 00:50:01;;;;;;;;;;;;;;;;;;347055;28;992;-85
2021/10/29 00:50:11;;;;;;;;;;;;;;;;;;347174;28;973;-83
2021/10/29 00:50:22;;;;;;;;;;;;;;;;;;348648;28;1489;-88
2021/10/29 00:50:32;;;;;;;;;;;;;;;;;;349912;28;988;-83
2021/10/29 00:50:43;;;;;;;;;;;;;;;;;;349841;28;841;-85
2021/10/29 00:50:53;;;;;;;;;;;;;;;;;;349546;28;1395;-85
2021/10/29 00:51:04;;;;;;;;;;;;;;;;;;349799;28;1306;-84
2021/10/29 00:51:17;;;;;;;;;;;;;;;;;;349876;28;1503;-84
2021/10/29 00:51:53;;;;;;;;;;;;;;;;;;348548;28;822;-84
2021/10/29 00:52:03;;;;;;;;;;;;;;;;;;348405;28;1174;-83
2021/10/29 00:52:14;;;;;;;;;;;;;;;;;;351152;28;967;-82
2021/10/29 00:52:24;;;;;;;;;;;;;;;;;;351296;28;933;-85
2021/10/29 00:52:35;;;;;;;;;;;;;;;;;;349920;28;841;-85
2021/10/29 00:52:45;;;;;;;;;;;;;;;;;;349818;28;984;-84
2021/10/29 00:52:56;;;;;;;;;;;;;;;;;;348508;28;810;-86
2021/10/29 00:53:08;;;;;;;;;;;;;;;;;;348482;28;984;-85
2021/10/29 00:53:19;;;;;;;;;;;;;;;;;;347110;28;1482;-80
2021/10/29 00:53:30;;;;;;;;;;;;;;;;;;344306;28;1299;-80
2021/10/29 00:53:40;;;;;;;;;;;;;;;;;;344461;28;1044;-87
2021/10/29 00:53:51;;;;;;;;;;;;;;;;;;344063;28;1423;-83
2021/10/29 00:54:01;;;;;;;;;;;;;;;;;;345590;28;1234;-80
2021/10/29 00:54:18;;;;;;;;;;;;;;;;;;345765;28;1077;-82
2021/10/29 00:54:28;;;;;;;;;;;;;;;;;;345746;28;940;-83
2021/10/29 00:54:39;;;;;;;;;;;;;;;;;;347049;28;1197;-82
2021/10/29 00:54:50;;;;;;;;;;;;;;;;;;349436;28;1428;-84
2021/10/29 00:55:01;;;;;;;;;;;;;;;;;;349836;28;1431;-80
2021/10/29 00:55:11;;;;;;;;;;;;;;;;;;349716;28;1421;-81
2021/10/29 00:55:22;;;;;;;;;;;;;;;;;;349809;28;1039;-84
2021/10/29 00:55:33;;;;;;;;;;;;;;;;;;348533;28;909;-82
2021/10/29 00:55:59;;;;;;;;;;;;;;;;;;348411;28;1172;-85
2021/10/29 00:56:09;;;;;;;;;;;;;;;;;;348511;28;964;-89
2021/10/29 00:56:29;;;;;;;;;;;;;;;;;;348204;28;1074;-84
2021/10/29 00:57:11;;;;;;;;;;;;;;;;;;349504;28;940;-86
2021/10/29 00:57:25;;;;;;;;;;;;;;;;;;348445;28;1314;-90
2021/10/29 00:57:36;;;;;;;;;;;;;;;;;;347061;28;1140;-87
2021/10/29 00:57:46;;;;;;;;;;;;;;;;;;345818;28;862;-87
2021/10/29 00:57:57;;;;;;;;;;;;;;;;;;345759;28;988;-85
2021/10/29 00:58:07;;;;;;;;;;;;;;;;;;345686;28;1421;-86
2021/10/29 00:58:18;;;;;;;;;;;;;;;;;;346753;28;1293;-85
2021/10/29 00:58:28;;;;;;;;;;;;;;;;;;348478;28;1541;-87
2021/10/29 00:58:38;;;;;;;;;;;;;;;;;;348555;28;1649;-89
2021/10/29 00:58:49;;;;;;;;;;;;;;;;;;348534;28;802;-84
2021/10/29 00:59:26;;;;;;;;;;;;;;;;;;349891;28;1005;-87
2021/10/29 00:59:37;;;;;;;;;;;;;;;;;;349966;28;872;-85
2021/10/29 00:59:49;;;;;;;;;;;;;;;;;;349954;28;1071;-86
2021/10/29 01:00:00;;;;;;;;;;;;;;;;;;350154;28;829;-89
2021/10/29 01:00:11;;;;;;;;;;;;;;;;;;349924;28;825;-89
2021/10/29 01:00:22;;;;;;;;;;;;;;;;;;347939;28;906;-90
2021/10/29 01:00:33;;;;;;;;;;;;;;;;;;348869;28;897;-90
2021/10/29 01:00:43;;;;;;;;;;;;;;;;;;350320;28;916;-86
2021/10/29 01:00:53;;;;;;;;;;;;;;;;;;351718;28;901;-87
2021/10/29 01:01:04;;;;;;;;;;;;;;;;;;351190;28;1253;-88
2021/10/29 01:01:14;;;;;;;;;;;;;;;;;;349645;28;981;-85
2021/10/29 01:01:25;;;;;;;;;;;;;;;;;;349884;28;770;-87
2021/10/29 01:01:35;;;;;;;;;;;;;;;;;;349950;28;853;-88
2021/10/29 01:01:46;;;;;;;;;;;;;;;;;;351019;28;1049;-88
2021/10/29 01:01:58;;;;;;;;;;;;;;;;;;351380;28;818;-87
2021/10/29 01:02:08;;;;;;;;;;;;;;;;;;351056;28;1507;-83
2021/10/29 01:02:19;;;;;;;;;;;;;;;;;;349811;28;1067;-85
2021/10/29 01:02:29;;;;;;;;;;;;;;;;;;348962;28;864;-87
2021/10/29 01:02:40;;;;;;;;;;;;;;;;;;349586;28;1171;-85
2021/10/29 01:02:50;;;;;;;;;;;;;;;;;;349699;28;869;-85
2021/10/29 01:03:01;;;;;;;;;;;;;;;;;;348382;28;1258;-89
2021/10/29 01:03:11;;;;;;;;;;;;;;;;;;349387;28;858;-87
2021/10/29 01:03:22;;;;;;;;;;;;;;;;;;349818;28;802;-89
2021/10/29 01:03:36;;;;;;;;;;;;;;;;;;349954;28;987;-84
2021/10/29 01:03:46;;;;;;;;;;;;;;;;;;349862;28;921;-85
2021/10/29 01:04:03;;;;;;;;;;;;;;;;;;349905;28;949;-89
2021/10/29 01:04:14;;;;;;;;;;;;;;;;;;348395;28;1167;-83
2021/10/29 01:04:25;;;;;;;;;;;;;;;;;;347045;28;1439;-87
2021/10/29 01:04:36;;;;;;;;;;;;;;;;;;346843;28;1037;-86
2021/10/29 01:04:46;;;;;;;;;;;;;;;;;;347142;28;1048;-85
2021/10/29 01:04:58;;;;;;;;;;;;;;;;;;349618;28;1502;-88
2021/10/29 01:05:08;;;;;;;;;;;;;;;;;;349832;28;1011;-90
2021/10/29 01:05:19;;;;;;;;;;;;;;;;;;351183;28;1204;-88
2021/10/29 01:05:29;;;;;;;;;;;;;;;;;;351275;28;920;-87
2021/10/29 01:05:40;;;;;;;;;;;;;;;;;;349511;28;1319;-84
2021/10/29 01:06:16;;;;;;;;;;;;;;;;;;348501;28;981;-84
2021/10/29 01:06:28;;;;;;;;;;;;;;;;;;348394;28;1442;-88
2021/10/29 01:06:39;;;;;;;;;;;;;;;;;;348477;28;968;-87
2021/10/29 01:06:49;;;;;;;;;;;;;;;;;;348601;28;853;-88
2021/10/29 01:07:00;;;;;;;;;;;;;;;;;;348377;28;1240;-88
2021/10/29 01:07:11;;;;;;;;;;;;;;;;;;349438;28;954;-87
2021/10/29 01:07:22;;;;;;;;;;;;;;;;;;349940;28;865;-88
2021/10/29 01:07:32;;;;;;;;;;;;;;;;;;349645;28;960;-89
2021/10/29 01:07:43;;;;;;;;;;;;;;;;;;348612;28;1406;-88
2021/10/29 01:07:55;;;;;;;;;;;;;;;;;;348420;28;988;-87
2021/10/29 01:08:07;;;;;;;;;;;;;;;;;;348454;28;1516;-90
2021/10/29 01:08:17;;;;;;;;;;;;;;;;;;348607;28;996;-90
2021/10/29 01:08:27;;;;;;;;;;;;;;;;;;348555;28;969;-89
2021/10/29 01:08:38;;;;;;;;;;;;;;;;;;348508;28;968;-89
2021/10/29 01:08:48;;;;;;;;;;;;;;;;;;347054;28;1254;-88
2021/10/29 01:08:59;;;;;;;;;;;;;;;;;;347084;28;790;-87
2021/10/29 01:09:10;;;;;;;;;;;;;;;;;;347212;28;885;-86
2021/10/29 01:09:20;;;;;;;;;;;;;;;;;;347084;28;502;-87
2021/10/29 01:09:30;;;;;;;;;;;;;;;;;;345841;28;822;-87
2021/10/29 01:10:12;;;;;;;;;;;;;;;;;;346920;28;1204;-89
2021/10/29 01:10:22;;;;;;;;;;;;;;;;;;347534;28;841;-87
2021/10/29 01:10:32;;;;;;;;;;;;;;;;;;348657;28;1060;-85
2021/10/29 01:10:43;;;;;;;;;;;;;;;;;;349161;28;985;-89
2021/10/29 01:11:36;;;;;;;;;;;;;;;;;;352639;28;1170;-88
2021/10/29 01:11:47;;;;;;;;;;;;;;;;;;352725;28;995;-88
2021/10/29 01:11:57;;;;;;;;;;;;;;;;;;351330;28;841;-89
2021/10/29 01:12:08;;;;;;;;;;;;;;;;;;351275;28;1031;-88
2021/10/29 01:12:19;;;;;;;;;;;;;;;;;;349715;28;1304;-88
2021/10/29 01:12:29;;;;;;;;;;;;;;;;;;349728;28;1018;-89
2021/10/29 01:12:40;;;;;;;;;;;;;;;;;;349943;28;1118;-88
2021/10/29 01:12:50;;;;;;;;;;;;;;;;;;345841;28;1484;-89
2021/10/29 01:13:01;;;;;;;;;;;;;;;;;;348542;28;778;-87
2021/10/29 01:13:11;;;;;;;;;;;;;;;;;;348568;28;861;-86
2021/10/29 01:13:22;;;;;;;;;;;;;;;;;;348403;28;1421;-87
2021/10/29 01:13:32;;;;;;;;;;;;;;;;;;348486;28;763;-85
2021/10/29 01:13:43;;;;;;;;;;;;;;;;;;348545;28;1004;-91
2021/10/29 01:13:54;;;;;;;;;;;;;;;;;;348546;28;889;-84
2021/10/29 01:14:20;;;;;;;;;;;;;;;;;;348442;28;1249;-88
2021/10/29 01:14:30;;;;;;;;;;;;;;;;;;349545;28;1365;-86
2021/10/29 01:14:41;;;;;;;;;;;;;;;;;;349899;28;928;-90
2021/10/29 01:15:02;;;;;;;;;;;;;;;;;;347131;28;1172;-88
2021/10/29 01:15:12;;;;;;;;;;;;;;;;;;347159;28;846;-86
2021/10/29 01:15:22;;;;;;;;;;;;;;;;;;347119;28;830;-87
2021/10/29 01:15:33;;;;;;;;;;;;;;;;;;348321;28;1131;-87
2021/10/29 01:15:43;;;;;;;;;;;;;;;;;;348431;28;913;-86
2021/10/29 01:15:54;;;;;;;;;;;;;;;;;;348496;28;993;-86
2021/10/29 01:16:06;;;;;;;;;;;;;;;;;;348298;28;1065;-85
2021/10/29 01:16:16;;;;;;;;;;;;;;;;;;346965;28;1141;-86
2021/10/29 01:16:27;;;;;;;;;;;;;;;;;;347895;28;892;-88
2021/10/29 01:16:37;;;;;;;;;;;;;;;;;;348416;28;901;-88
2021/10/29 01:16:48;;;;;;;;;;;;;;;;;;348469;28;916;-86
2021/10/29 01:16:58;;;;;;;;;;;;;;;;;;347026;28;1161;-88
2021/10/29 01:17:08;;;;;;;;;;;;;;;;;;347092;28;1339;-90
2021/10/29 01:17:19;;;;;;;;;;;;;;;;;;347263;28;984;-88
2021/10/29 01:17:29;;;;;;;;;;;;;;;;;;348552;28;872;-86
2021/10/29 01:17:40;;;;;;;;;;;;;;;;;;348443;28;1378;-91
2021/10/29 01:17:50;;;;;;;;;;;;;;;;;;349734;28;1434;-86
2021/10/29 01:18:01;;;;;;;;;;;;;;;;;;349893;28;925;-88
2021/10/29 01:18:11;;;;;;;;;;;;;;;;;;345670;28;1251;-89
2021/10/29 01:18:22;;;;;;;;;;;;;;;;;;345937;28;814;-89
2021/10/29 01:18:33;;;;;;;;;;;;;;;;;;348506;28;833;-89
2021/10/29 01:18:43;;;;;;;;;;;;;;;;;;347111;28;920;-84
2021/10/29 01:18:53;;;;;;;;;;;;;;;;;;347133;28;984;-88
2021/10/29 01:19:04;;;;;;;;;;;;;;;;;;348200;28;971;-89
2021/10/29 01:19:15;;;;;;;;;;;;;;;;;;348488;28;1887;-86
2021/10/29 01:19:31;;;;;;;;;;;;;;;;;;348683;28;817;-88
2021/10/29 01:19:42;;;;;;;;;;;;;;;;;;348612;28;961;-87
2021/10/29 01:19:53;;;;;;;;;;;;;;;;;;348502;28;1011;-88
2021/10/29 01:20:05;;;;;;;;;;;;;;;;;;348629;28;980;-87
2021/10/29 01:20:31;;;;;;;;;;;;;;;;;;348383;28;1205;-89
2021/10/29 01:20:41;;;;;;;;;;;;;;;;;;347066;28;1008;-86
2021/10/29 01:20:51;;;;;;;;;;;;;;;;;;348484;28;1700;-88
2021/10/29 01:21:02;;;;;;;;;;;;;;;;;;349298;28;1589;-87
2021/10/29 01:21:13;;;;;;;;;;;;;;;;;;350822;28;1000;-88
2021/10/29 01:21:23;;;;;;;;;;;;;;;;;;351295;28;913;-85
2021/10/29 01:21:33;;;;;;;;;;;;;;;;;;348121;28;1320;-87
2021/10/29 01:21:44;;;;;;;;;;;;;;;;;;348394;28;1157;-87
2021/10/29 01:21:54;;;;;;;;;;;;;;;;;;346777;28;1002;-85
2021/10/29 01:22:05;;;;;;;;;;;;;;;;;;347121;28;842;-86
2021/10/29 01:22:31;;;;;;;;;;;;;;;;;;348529;28;1020;-89
2021/10/29 01:22:41;;;;;;;;;;;;;;;;;;348463;28;1051;-86
2021/10/29 01:22:52;;;;;;;;;;;;;;;;;;348594;28;972;-90
2021/10/29 01:23:03;;;;;;;;;;;;;;;;;;348496;28;980;-87
2021/10/29 01:23:13;;;;;;;;;;;;;;;;;;348558;28;917;-90
2021/10/29 01:23:23;;;;;;;;;;;;;;;;;;348496;28;794;-88
2021/10/29 01:23:34;;;;;;;;;;;;;;;;;;349705;28;1452;-89
2021/10/29 01:23:44;;;;;;;;;;;;;;;;;;347091;28;1450;-89
2021/10/29 01:23:55;;;;;;;;;;;;;;;;;;345691;28;1033;-82
2021/10/29 01:24:07;;;;;;;;;;;;;;;;;;347246;28;1404;-82
2021/10/29 01:24:18;;;;;;;;;;;;;;;;;;346909;28;1494;-86
2021/10/29 01:24:28;;;;;;;;;;;;;;;;;;347074;28;1180;-88
2021/10/29 01:24:38;;;;;;;;;;;;;;;;;;348319;28;1506;-87
2021/10/29 01:24:50;;;;;;;;;;;;;;;;;;348401;28;1168;-86
2021/10/29 01:25:00;;;;;;;;;;;;;;;;;;347032;28;1152;-86
2021/10/29 01:25:27;;;;;;;;;;;;;;;;;;345736;28;922;-86
2021/10/29 01:25:37;;;;;;;;;;;;;;;;;;348224;28;1447;-86
2021/10/29 01:25:48;;;;;;;;;;;;;;;;;;349620;28;1194;-89
2021/10/29 01:26:06;;;;;;;;;;;;;;;;;;349943;28;991;-83
2021/10/29 01:26:16;;;;;;;;;;;;;;;;;;349644;28;1583;-90
2021/10/29 01:26:27;;;;;;;;;;;;;;;;;;348448;28;960;-87
2021/10/29 01:26:37;;;;;;;;;;;;;;;;;;345409;28;1222;-87
2021/10/29 01:26:48;;;;;;;;;;;;;;;;;;345795;28;920;-87
2021/10/29 01:26:58;;;;;;;;;;;;;;;;;;345772;28;929;-87
2021/10/29 01:27:10;;;;;;;;;;;;;;;;;;345740;28;903;-86
2021/10/29 01:27:21;;;;;;;;;;;;;;;;;;344322;28;1164;-87
2021/10/29 01:27:31;;;;;;;;;;;;;;;;;;344713;28;992;-88
2021/10/29 01:27:42;;;;;;;;;;;;;;;;;;348350;28;1366;-87
2021/10/29 01:27:52;;;;;;;;;;;;;;;;;;348230;28;1469;-88
2021/10/29 01:28:03;;;;;;;;;;;;;;;;;;348535;28;905;-88
2021/10/29 01:28:29;;;;;;;;;;;;;;;;;;348564;28;850;-91
2021/10/29 01:28:39;;;;;;;;;;;;;;;;;;349840;28;810;-89
2021/10/29 01:28:50;;;;;;;;;;;;;;;;;;347090;28;1696;-89
2021/10/29 01:29:00;;;;;;;;;;;;;;;;;;347266;28;826;-87
2021/10/29 01:29:11;;;;;;;;;;;;;;;;;;347188;28;861;-89